sensor_id;sensor_type;location;lat;lon;timestamp;P1;durP1;ratioP1;P2;durP2;ratioP2
59338;SDS011;45117;50.960;5.500;2023-06-22T00:00:10;4.25;;;3.00;;
59338;SDS011;45117;50.960;5.500;2023-06-22T00:03:44;4.10;;;2.75;;
59338;SDS011;45117;50.960;5.500;2023-06-22T00:07:04;3.30;;;2.50;;
59338;SDS011;45117;50.960;5.500;2023-06-22T00:26:15;5.25;;;2.80;;
59338;SDS011;45117;50.960;5.500;2023-06-22T00:29:36;3.75;;;2.65;;
59338;SDS011;45117;50.960;5.500;2023-06-22T00:32:23;4.25;;;2.40;;
59338;SDS011;45117;50.960;5.500;2023-06-22T00:35:00;5.53;;;3.03;;
59338;SDS011;45117;50.960;5.500;2023-06-22T00:37:37;5.72;;;2.80;;
59338;SDS011;45117;50.960;5.500;2023-06-22T00:40:17;6.03;;;2.60;;
59338;SDS011;45117;50.960;5.500;2023-06-22T00:43:09;5.47;;;2.90;;
59338;SDS011;45117;50.960;5.500;2023-06-22T00:45:56;4.90;;;2.78;;
59338;SDS011;45117;50.960;5.500;2023-06-22T00:48:47;4.82;;;3.05;;
59338;SDS011;45117;50.960;5.500;2023-06-22T00:51:32;2.90;;;2.15;;
59338;SDS011;45117;50.960;5.500;2023-06-22T00:54:23;5.90;;;3.25;;
59338;SDS011;45117;50.960;5.500;2023-06-22T00:57:29;4.07;;;2.80;;
59338;SDS011;45117;50.960;5.500;2023-06-22T01:00:25;4.10;;;3.00;;
59338;SDS011;45117;50.960;5.500;2023-06-22T01:03:02;5.55;;;3.53;;
59338;SDS011;45117;50.960;5.500;2023-06-22T01:06:05;5.88;;;3.63;;
59338;SDS011;45117;50.960;5.500;2023-06-22T01:08:51;4.95;;;2.42;;
59338;SDS011;45117;50.960;5.500;2023-06-22T01:11:28;6.28;;;3.47;;
59338;SDS011;45117;50.960;5.500;2023-06-22T01:14:05;10.05;;;3.17;;
59338;SDS011;45117;50.960;5.500;2023-06-22T01:16:55;7.13;;;3.67;;
59338;SDS011;45117;50.960;5.500;2023-06-22T01:20:30;6.07;;;3.60;;
59338;SDS011;45117;50.960;5.500;2023-06-22T01:23:54;5.45;;;3.60;;
59338;SDS011;45117;50.960;5.500;2023-06-22T01:26:59;7.43;;;4.15;;
59338;SDS011;45117;50.960;5.500;2023-06-22T01:30:16;6.20;;;4.10;;
59338;SDS011;45117;50.960;5.500;2023-06-22T01:51:14;9.07;;;6.13;;
59338;SDS011;45117;50.960;5.500;2023-06-22T01:54:19;11.25;;;6.38;;
59338;SDS011;45117;50.960;5.500;2023-06-22T01:57:20;8.00;;;5.15;;
59338;SDS011;45117;50.960;5.500;2023-06-22T02:00:31;7.95;;;5.60;;
59338;SDS011;45117;50.960;5.500;2023-06-22T02:13:38;10.38;;;6.43;;
59338;SDS011;45117;50.960;5.500;2023-06-22T02:16:23;12.27;;;7.82;;
59338;SDS011;45117;50.960;5.500;2023-06-22T02:26:23;13.93;;;8.57;;
59338;SDS011;45117;50.960;5.500;2023-06-22T02:29:00;12.50;;;9.15;;
59338;SDS011;45117;50.960;5.500;2023-06-22T02:31:29;13.35;;;7.75;;
59338;SDS011;45117;50.960;5.500;2023-06-22T02:33:58;12.23;;;8.45;;
59338;SDS011;45117;50.960;5.500;2023-06-22T02:40:06;14.43;;;9.43;;
59338;SDS011;45117;50.960;5.500;2023-06-22T02:42:37;13.98;;;9.07;;
59338;SDS011;45117;50.960;5.500;2023-06-22T02:45:10;15.77;;;9.18;;
59338;SDS011;45117;50.960;5.500;2023-06-22T02:47:50;17.70;;;11.10;;
59338;SDS011;45117;50.960;5.500;2023-06-22T02:51:07;16.27;;;10.55;;
59338;SDS011;45117;50.960;5.500;2023-06-22T02:59:59;18.38;;;11.65;;
59338;SDS011;45117;50.960;5.500;2023-06-22T03:06:18;16.17;;;10.75;;
59338;SDS011;45117;50.960;5.500;2023-06-22T03:09:21;18.33;;;11.40;;
59338;SDS011;45117;50.960;5.500;2023-06-22T03:11:48;21.73;;;12.25;;
59338;SDS011;45117;50.960;5.500;2023-06-22T03:14:28;18.48;;;11.38;;
59338;SDS011;45117;50.960;5.500;2023-06-22T03:23:25;18.48;;;12.30;;
59338;SDS011;45117;50.960;5.500;2023-06-22T03:26:08;18.10;;;11.50;;
59338;SDS011;45117;50.960;5.500;2023-06-22T03:28:45;17.48;;;11.38;;
59338;SDS011;45117;50.960;5.500;2023-06-22T03:34:40;16.92;;;12.23;;
59338;SDS011;45117;50.960;5.500;2023-06-22T03:41:01;19.63;;;12.13;;
59338;SDS011;45117;50.960;5.500;2023-06-22T03:49:40;22.85;;;13.52;;
59338;SDS011;45117;50.960;5.500;2023-06-22T04:03:27;20.63;;;12.80;;
59338;SDS011;45117;50.960;5.500;2023-06-22T04:05:57;20.05;;;12.60;;
59338;SDS011;45117;50.960;5.500;2023-06-22T04:08:48;20.65;;;13.73;;
59338;SDS011;45117;50.960;5.500;2023-06-22T04:11:34;19.73;;;13.35;;
59338;SDS011;45117;50.960;5.500;2023-06-22T04:14:22;21.83;;;13.57;;
59338;SDS011;45117;50.960;5.500;2023-06-22T04:17:16;18.48;;;11.88;;
59338;SDS011;45117;50.960;5.500;2023-06-22T04:20:17;16.02;;;10.73;;
59338;SDS011;45117;50.960;5.500;2023-06-22T04:23:07;19.27;;;12.40;;
59338;SDS011;45117;50.960;5.500;2023-06-22T04:25:46;18.67;;;11.57;;
59338;SDS011;45117;50.960;5.500;2023-06-22T04:28:14;14.30;;;9.13;;
59338;SDS011;45117;50.960;5.500;2023-06-22T04:30:49;19.63;;;12.27;;
59338;SDS011;45117;50.960;5.500;2023-06-22T04:33:18;18.20;;;10.95;;
59338;SDS011;45117;50.960;5.500;2023-06-22T04:35:49;20.23;;;13.02;;
59338;SDS011;45117;50.960;5.500;2023-06-22T04:38:44;18.35;;;12.07;;
59338;SDS011;45117;50.960;5.500;2023-06-22T04:41:40;24.45;;;14.90;;
59338;SDS011;45117;50.960;5.500;2023-06-22T04:44:18;19.88;;;13.82;;
59338;SDS011;45117;50.960;5.500;2023-06-22T04:47:05;21.17;;;15.30;;
59338;SDS011;45117;50.960;5.500;2023-06-22T04:50:01;24.30;;;15.82;;
59338;SDS011;45117;50.960;5.500;2023-06-22T04:52:33;21.33;;;15.43;;
59338;SDS011;45117;50.960;5.500;2023-06-22T04:55:03;27.50;;;15.88;;
59338;SDS011;45117;50.960;5.500;2023-06-22T04:57:34;22.88;;;15.30;;
59338;SDS011;45117;50.960;5.500;2023-06-22T05:00:05;21.58;;;14.90;;
59338;SDS011;45117;50.960;5.500;2023-06-22T05:02:37;22.40;;;15.77;;
59338;SDS011;45117;50.960;5.500;2023-06-22T05:05:05;23.42;;;15.02;;
59338;SDS011;45117;50.960;5.500;2023-06-22T05:07:33;21.73;;;14.63;;
59338;SDS011;45117;50.960;5.500;2023-06-22T05:13:13;24.90;;;17.15;;
59338;SDS011;45117;50.960;5.500;2023-06-22T05:15:51;26.88;;;16.98;;
59338;SDS011;45117;50.960;5.500;2023-06-22T05:18:29;24.83;;;17.13;;
59338;SDS011;45117;50.960;5.500;2023-06-22T05:21:00;24.10;;;16.15;;
59338;SDS011;45117;50.960;5.500;2023-06-22T05:23:32;26.30;;;16.90;;
59338;SDS011;45117;50.960;5.500;2023-06-22T05:26:02;24.85;;;15.32;;
59338;SDS011;45117;50.960;5.500;2023-06-22T05:28:28;24.80;;;16.08;;
59338;SDS011;45117;50.960;5.500;2023-06-22T05:30:55;30.05;;;18.25;;
59338;SDS011;45117;50.960;5.500;2023-06-22T05:33:22;27.70;;;17.85;;
59338;SDS011;45117;50.960;5.500;2023-06-22T05:35:49;27.02;;;17.65;;
59338;SDS011;45117;50.960;5.500;2023-06-22T05:38:17;27.15;;;17.65;;
59338;SDS011;45117;50.960;5.500;2023-06-22T05:40:45;27.52;;;17.50;;
59338;SDS011;45117;50.960;5.500;2023-06-22T05:43:12;21.95;;;16.10;;
59338;SDS011;45117;50.960;5.500;2023-06-22T05:45:41;25.67;;;17.17;;
59338;SDS011;45117;50.960;5.500;2023-06-22T05:48:08;27.58;;;18.83;;
59338;SDS011;45117;50.960;5.500;2023-06-22T05:50:35;29.17;;;18.45;;
59338;SDS011;45117;50.960;5.500;2023-06-22T05:53:03;27.30;;;17.83;;
59338;SDS011;45117;50.960;5.500;2023-06-22T05:55:31;27.55;;;18.42;;
59338;SDS011;45117;50.960;5.500;2023-06-22T05:57:59;26.30;;;17.90;;
59338;SDS011;45117;50.960;5.500;2023-06-22T06:00:30;24.50;;;17.98;;
59338;SDS011;45117;50.960;5.500;2023-06-22T06:02:57;21.55;;;14.05;;
59338;SDS011;45117;50.960;5.500;2023-06-22T06:05:28;23.80;;;16.05;;
59338;SDS011;45117;50.960;5.500;2023-06-22T06:08:01;27.83;;;18.95;;
59338;SDS011;45117;50.960;5.500;2023-06-22T06:10:30;23.77;;;14.60;;
59338;SDS011;45117;50.960;5.500;2023-06-22T06:12:57;26.48;;;18.33;;
59338;SDS011;45117;50.960;5.500;2023-06-22T06:15:25;26.40;;;18.17;;
59338;SDS011;45117;50.960;5.500;2023-06-22T06:17:52;26.55;;;17.40;;
59338;SDS011;45117;50.960;5.500;2023-06-22T06:20:19;24.35;;;15.98;;
59338;SDS011;45117;50.960;5.500;2023-06-22T06:22:47;26.00;;;18.55;;
59338;SDS011;45117;50.960;5.500;2023-06-22T06:25:15;29.73;;;18.25;;
59338;SDS011;45117;50.960;5.500;2023-06-22T06:27:42;26.90;;;18.13;;
59338;SDS011;45117;50.960;5.500;2023-06-22T06:30:09;24.73;;;18.00;;
59338;SDS011;45117;50.960;5.500;2023-06-22T06:32:39;23.38;;;16.10;;
59338;SDS011;45117;50.960;5.500;2023-06-22T06:35:06;28.52;;;18.08;;
59338;SDS011;45117;50.960;5.500;2023-06-22T06:37:34;26.08;;;18.30;;
59338;SDS011;45117;50.960;5.500;2023-06-22T06:40:02;28.38;;;19.20;;
59338;SDS011;45117;50.960;5.500;2023-06-22T06:42:32;26.58;;;17.75;;
59338;SDS011;45117;50.960;5.500;2023-06-22T06:45:00;27.35;;;17.95;;
59338;SDS011;45117;50.960;5.500;2023-06-22T06:47:27;27.25;;;17.70;;
59338;SDS011;45117;50.960;5.500;2023-06-22T06:49:55;22.80;;;15.82;;
59338;SDS011;45117;50.960;5.500;2023-06-22T06:52:23;25.42;;;16.70;;
59338;SDS011;45117;50.960;5.500;2023-06-22T06:54:50;25.88;;;16.77;;
59338;SDS011;45117;50.960;5.500;2023-06-22T06:57:18;26.83;;;17.67;;
59338;SDS011;45117;50.960;5.500;2023-06-22T06:59:45;24.48;;;16.55;;
59338;SDS011;45117;50.960;5.500;2023-06-22T07:02:12;24.20;;;16.77;;
59338;SDS011;45117;50.960;5.500;2023-06-22T07:04:39;25.60;;;16.55;;
59338;SDS011;45117;50.960;5.500;2023-06-22T07:07:08;27.13;;;17.10;;
59338;SDS011;45117;50.960;5.500;2023-06-22T07:09:34;24.83;;;17.42;;
59338;SDS011;45117;50.960;5.500;2023-06-22T07:12:01;27.23;;;17.02;;
59338;SDS011;45117;50.960;5.500;2023-06-22T07:14:34;25.02;;;15.95;;
59338;SDS011;45117;50.960;5.500;2023-06-22T07:17:23;19.67;;;15.13;;
59338;SDS011;45117;50.960;5.500;2023-06-22T07:19:51;21.73;;;14.73;;
59338;SDS011;45117;50.960;5.500;2023-06-22T07:33:20;18.10;;;13.43;;
59338;SDS011;45117;50.960;5.500;2023-06-22T07:36:08;19.08;;;12.20;;
59338;SDS011;45117;50.960;5.500;2023-06-22T07:38:53;22.75;;;15.48;;
59338;SDS011;45117;50.960;5.500;2023-06-22T07:44:53;19.95;;;14.45;;
59338;SDS011;45117;50.960;5.500;2023-06-22T07:47:39;19.83;;;15.45;;
59338;SDS011;45117;50.960;5.500;2023-06-22T07:50:32;22.75;;;15.60;;
59338;SDS011;45117;50.960;5.500;2023-06-22T07:53:36;19.90;;;15.32;;
59338;SDS011;45117;50.960;5.500;2023-06-22T07:56:14;21.63;;;16.52;;
59338;SDS011;45117;50.960;5.500;2023-06-22T07:58:55;22.35;;;16.20;;
59338;SDS011;45117;50.960;5.500;2023-06-22T08:04:11;19.77;;;15.60;;
59338;SDS011;45117;50.960;5.500;2023-06-22T08:07:54;21.27;;;14.20;;
59338;SDS011;45117;50.960;5.500;2023-06-22T08:10:37;20.33;;;14.18;;
59338;SDS011;45117;50.960;5.500;2023-06-22T08:13:50;19.73;;;13.70;;
59338;SDS011;45117;50.960;5.500;2023-06-22T08:16:30;23.80;;;17.42;;
59338;SDS011;45117;50.960;5.500;2023-06-22T08:19:07;23.70;;;17.55;;
59338;SDS011;45117;50.960;5.500;2023-06-22T08:21:49;24.17;;;16.67;;
59338;SDS011;45117;50.960;5.500;2023-06-22T08:27:42;24.25;;;16.70;;
59338;SDS011;45117;50.960;5.500;2023-06-22T08:30:29;27.40;;;18.15;;
59338;SDS011;45117;50.960;5.500;2023-06-22T08:33:32;24.67;;;17.40;;
59338;SDS011;45117;50.960;5.500;2023-06-22T09:23:04;21.63;;;15.57;;
59338;SDS011;45117;50.960;5.500;2023-06-22T09:25:31;22.65;;;18.02;;
59338;SDS011;45117;50.960;5.500;2023-06-22T09:27:58;26.02;;;18.67;;
59338;SDS011;45117;50.960;5.500;2023-06-22T09:30:24;20.08;;;13.90;;
59338;SDS011;45117;50.960;5.500;2023-06-22T09:32:51;24.40;;;17.50;;
59338;SDS011;45117;50.960;5.500;2023-06-22T09:35:17;18.25;;;12.98;;
59338;SDS011;45117;50.960;5.500;2023-06-22T09:37:46;26.88;;;19.25;;
59338;SDS011;45117;50.960;5.500;2023-06-22T09:40:13;24.50;;;18.48;;
59338;SDS011;45117;50.960;5.500;2023-06-22T09:42:41;24.83;;;18.08;;
59338;SDS011;45117;50.960;5.500;2023-06-22T09:45:12;26.80;;;18.77;;
59338;SDS011;45117;50.960;5.500;2023-06-22T09:47:38;26.95;;;19.05;;
59338;SDS011;45117;50.960;5.500;2023-06-22T09:50:06;25.15;;;18.38;;
59338;SDS011;45117;50.960;5.500;2023-06-22T09:52:33;25.73;;;18.00;;
59338;SDS011;45117;50.960;5.500;2023-06-22T09:55:05;28.20;;;18.48;;
59338;SDS011;45117;50.960;5.500;2023-06-22T09:57:32;21.30;;;14.65;;
59338;SDS011;45117;50.960;5.500;2023-06-22T09:59:59;23.98;;;17.50;;
59338;SDS011;45117;50.960;5.500;2023-06-22T10:02:26;21.08;;;15.73;;
59338;SDS011;45117;50.960;5.500;2023-06-22T10:04:56;23.30;;;17.83;;
59338;SDS011;45117;50.960;5.500;2023-06-22T10:07:22;26.13;;;17.83;;
59338;SDS011;45117;50.960;5.500;2023-06-22T10:09:49;24.05;;;17.48;;
59338;SDS011;45117;50.960;5.500;2023-06-22T10:12:17;29.25;;;19.52;;
59338;SDS011;45117;50.960;5.500;2023-06-22T10:14:44;29.83;;;21.60;;
59338;SDS011;45117;50.960;5.500;2023-06-22T10:17:11;32.03;;;21.88;;
59338;SDS011;45117;50.960;5.500;2023-06-22T10:19:37;29.02;;;21.35;;
59338;SDS011;45117;50.960;5.500;2023-06-22T10:22:06;29.02;;;21.55;;
59338;SDS011;45117;50.960;5.500;2023-06-22T10:24:33;29.90;;;22.65;;
59338;SDS011;45117;50.960;5.500;2023-06-22T10:27:02;29.17;;;21.80;;
59338;SDS011;45117;50.960;5.500;2023-06-22T10:29:33;28.90;;;22.40;;
59338;SDS011;45117;50.960;5.500;2023-06-22T10:32:00;34.15;;;22.50;;
59338;SDS011;45117;50.960;5.500;2023-06-22T10:34:30;32.40;;;23.35;;
59338;SDS011;45117;50.960;5.500;2023-06-22T10:36:57;37.05;;;25.05;;
59338;SDS011;45117;50.960;5.500;2023-06-22T10:39:24;34.10;;;24.67;;
59338;SDS011;45117;50.960;5.500;2023-06-22T10:41:51;33.35;;;24.95;;
59338;SDS011;45117;50.960;5.500;2023-06-22T10:44:17;31.45;;;21.80;;
59338;SDS011;45117;50.960;5.500;2023-06-22T10:46:47;35.63;;;24.88;;
59338;SDS011;45117;50.960;5.500;2023-06-22T10:49:13;37.17;;;25.05;;
59338;SDS011;45117;50.960;5.500;2023-06-22T10:51:40;35.67;;;23.63;;
59338;SDS011;45117;50.960;5.500;2023-06-22T10:54:07;37.53;;;25.20;;
59338;SDS011;45117;50.960;5.500;2023-06-22T10:56:33;36.72;;;26.15;;
59338;SDS011;45117;50.960;5.500;2023-06-22T10:59:00;34.30;;;24.80;;
59338;SDS011;45117;50.960;5.500;2023-06-22T11:01:33;37.13;;;25.35;;
59338;SDS011;45117;50.960;5.500;2023-06-22T11:04:04;39.95;;;26.80;;
59338;SDS011;45117;50.960;5.500;2023-06-22T11:06:31;38.22;;;26.15;;
59338;SDS011;45117;50.960;5.500;2023-06-22T11:08:58;34.65;;;25.20;;
59338;SDS011;45117;50.960;5.500;2023-06-22T11:11:25;35.88;;;25.48;;
59338;SDS011;45117;50.960;5.500;2023-06-22T11:13:52;38.05;;;25.83;;
59338;SDS011;45117;50.960;5.500;2023-06-22T11:16:19;35.72;;;25.50;;
59338;SDS011;45117;50.960;5.500;2023-06-22T11:18:45;35.75;;;24.70;;
59338;SDS011;45117;50.960;5.500;2023-06-22T11:21:13;36.47;;;25.45;;
59338;SDS011;45117;50.960;5.500;2023-06-22T11:23:42;33.30;;;23.13;;
59338;SDS011;45117;50.960;5.500;2023-06-22T11:26:09;34.95;;;25.58;;
59338;SDS011;45117;50.960;5.500;2023-06-22T11:28:35;35.20;;;25.20;;
59338;SDS011;45117;50.960;5.500;2023-06-22T11:31:02;35.08;;;24.45;;
59338;SDS011;45117;50.960;5.500;2023-06-22T11:33:30;33.22;;;24.60;;
59338;SDS011;45117;50.960;5.500;2023-06-22T11:35:56;37.60;;;26.02;;
59338;SDS011;45117;50.960;5.500;2023-06-22T11:38:24;35.20;;;24.65;;
59338;SDS011;45117;50.960;5.500;2023-06-22T11:40:51;39.28;;;26.38;;
59338;SDS011;45117;50.960;5.500;2023-06-22T11:43:19;27.58;;;19.55;;
59338;SDS011;45117;50.960;5.500;2023-06-22T11:45:46;31.70;;;22.80;;
59338;SDS011;45117;50.960;5.500;2023-06-22T11:48:15;35.28;;;25.83;;
59338;SDS011;45117;50.960;5.500;2023-06-22T11:50:44;34.03;;;25.38;;
59338;SDS011;45117;50.960;5.500;2023-06-22T11:53:10;36.13;;;25.73;;
59338;SDS011;45117;50.960;5.500;2023-06-22T11:55:43;32.05;;;24.42;;
59338;SDS011;45117;50.960;5.500;2023-06-22T11:58:10;28.38;;;21.63;;
59338;SDS011;45117;50.960;5.500;2023-06-22T12:00:37;35.50;;;26.33;;
59338;SDS011;45117;50.960;5.500;2023-06-22T12:03:03;26.88;;;20.92;;
59338;SDS011;45117;50.960;5.500;2023-06-22T12:05:30;34.85;;;26.13;;
59338;SDS011;45117;50.960;5.500;2023-06-22T12:07:57;31.05;;;23.70;;
59338;SDS011;45117;50.960;5.500;2023-06-22T12:10:24;36.10;;;24.25;;
59338;SDS011;45117;50.960;5.500;2023-06-22T12:12:55;33.55;;;25.88;;
59338;SDS011;45117;50.960;5.500;2023-06-22T12:15:22;35.17;;;26.00;;
59338;SDS011;45117;50.960;5.500;2023-06-22T12:17:49;35.13;;;24.08;;
59338;SDS011;45117;50.960;5.500;2023-06-22T12:20:16;35.03;;;25.38;;
59338;SDS011;45117;50.960;5.500;2023-06-22T12:22:43;34.53;;;25.75;;
59338;SDS011;45117;50.960;5.500;2023-06-22T12:25:09;35.08;;;25.55;;
59338;SDS011;45117;50.960;5.500;2023-06-22T12:27:37;37.92;;;26.83;;
59338;SDS011;45117;50.960;5.500;2023-06-22T12:30:06;38.03;;;27.48;;
59338;SDS011;45117;50.960;5.500;2023-06-22T12:32:33;34.85;;;25.73;;
59338;SDS011;45117;50.960;5.500;2023-06-22T12:34:59;29.65;;;20.48;;
59338;SDS011;45117;50.960;5.500;2023-06-22T12:37:26;36.22;;;24.75;;
59338;SDS011;45117;50.960;5.500;2023-06-22T12:39:56;37.42;;;26.30;;
59338;SDS011;45117;50.960;5.500;2023-06-22T12:42:23;39.50;;;28.20;;
59338;SDS011;45117;50.960;5.500;2023-06-22T12:44:51;35.50;;;25.75;;
59338;SDS011;45117;50.960;5.500;2023-06-22T12:47:22;43.55;;;29.02;;
59338;SDS011;45117;50.960;5.500;2023-06-22T12:49:49;42.10;;;29.33;;
59338;SDS011;45117;50.960;5.500;2023-06-22T12:52:16;38.65;;;28.55;;
59338;SDS011;45117;50.960;5.500;2023-06-22T12:54:42;40.53;;;28.40;;
59338;SDS011;45117;50.960;5.500;2023-06-22T12:57:09;37.35;;;26.83;;
59338;SDS011;45117;50.960;5.500;2023-06-22T12:59:36;42.50;;;30.15;;
59338;SDS011;45117;50.960;5.500;2023-06-22T13:02:02;36.92;;;25.13;;
59338;SDS011;45117;50.960;5.500;2023-06-22T13:04:31;35.35;;;25.35;;
59338;SDS011;45117;50.960;5.500;2023-06-22T13:06:57;42.63;;;29.38;;
59338;SDS011;45117;50.960;5.500;2023-06-22T13:09:25;39.50;;;28.65;;
59338;SDS011;45117;50.960;5.500;2023-06-22T13:11:51;37.92;;;27.73;;
59338;SDS011;45117;50.960;5.500;2023-06-22T13:14:18;38.83;;;28.48;;
59338;SDS011;45117;50.960;5.500;2023-06-22T13:16:46;29.60;;;20.65;;
59338;SDS011;45117;50.960;5.500;2023-06-22T13:19:12;30.33;;;22.45;;
59338;SDS011;45117;50.960;5.500;2023-06-22T13:21:40;28.95;;;21.63;;
59338;SDS011;45117;50.960;5.500;2023-06-22T13:24:07;30.00;;;21.67;;
59338;SDS011;45117;50.960;5.500;2023-06-22T13:26:34;27.65;;;20.25;;
59338;SDS011;45117;50.960;5.500;2023-06-22T13:29:04;27.65;;;19.67;;
59338;SDS011;45117;50.960;5.500;2023-06-22T13:31:30;25.67;;;18.95;;
59338;SDS011;45117;50.960;5.500;2023-06-22T13:33:57;29.48;;;21.13;;
59338;SDS011;45117;50.960;5.500;2023-06-22T13:36:24;22.77;;;17.55;;
59338;SDS011;45117;50.960;5.500;2023-06-22T13:38:52;24.52;;;18.65;;
59338;SDS011;45117;50.960;5.500;2023-06-22T13:41:19;27.67;;;20.70;;
59338;SDS011;45117;50.960;5.500;2023-06-22T13:43:45;23.50;;;16.58;;
59338;SDS011;45117;50.960;5.500;2023-06-22T13:46:12;28.45;;;19.85;;
59338;SDS011;45117;50.960;5.500;2023-06-22T13:48:41;22.92;;;16.52;;
59338;SDS011;45117;50.960;5.500;2023-06-22T13:51:07;27.05;;;18.70;;
59338;SDS011;45117;50.960;5.500;2023-06-22T13:53:34;24.35;;;17.88;;
59338;SDS011;45117;50.960;5.500;2023-06-22T13:56:02;30.48;;;20.85;;
59338;SDS011;45117;50.960;5.500;2023-06-22T13:58:29;30.00;;;19.55;;
59338;SDS011;45117;50.960;5.500;2023-06-22T14:00:56;31.77;;;21.60;;
59338;SDS011;45117;50.960;5.500;2023-06-22T14:03:23;28.85;;;20.98;;
59338;SDS011;45117;50.960;5.500;2023-06-22T14:05:50;31.02;;;22.25;;
59338;SDS011;45117;50.960;5.500;2023-06-22T14:08:19;30.10;;;21.67;;
59338;SDS011;45117;50.960;5.500;2023-06-22T14:10:48;32.08;;;23.02;;
59338;SDS011;45117;50.960;5.500;2023-06-22T14:13:16;31.25;;;21.35;;
59338;SDS011;45117;50.960;5.500;2023-06-22T14:15:43;32.97;;;21.67;;
59338;SDS011;45117;50.960;5.500;2023-06-22T14:18:13;32.95;;;22.73;;
59338;SDS011;45117;50.960;5.500;2023-06-22T14:20:42;33.25;;;22.27;;
59338;SDS011;45117;50.960;5.500;2023-06-22T14:23:09;32.35;;;24.08;;
59338;SDS011;45117;50.960;5.500;2023-06-22T14:25:35;33.90;;;23.15;;
59338;SDS011;45117;50.960;5.500;2023-06-22T14:28:02;37.95;;;26.15;;
59338;SDS011;45117;50.960;5.500;2023-06-22T14:30:31;40.20;;;27.10;;
59338;SDS011;45117;50.960;5.500;2023-06-22T14:32:57;42.10;;;28.58;;
59338;SDS011;45117;50.960;5.500;2023-06-22T14:35:24;39.90;;;26.65;;
59338;SDS011;45117;50.960;5.500;2023-06-22T14:37:54;41.88;;;28.50;;
59338;SDS011;45117;50.960;5.500;2023-06-22T14:40:21;38.42;;;27.48;;
59338;SDS011;45117;50.960;5.500;2023-06-22T14:42:49;38.13;;;26.83;;
59338;SDS011;45117;50.960;5.500;2023-06-22T14:45:23;36.95;;;25.98;;
59338;SDS011;45117;50.960;5.500;2023-06-22T14:50:29;35.08;;;25.85;;
59338;SDS011;45117;50.960;5.500;2023-06-22T14:53:03;33.08;;;24.27;;
59338;SDS011;45117;50.960;5.500;2023-06-22T14:55:39;34.58;;;25.73;;
59338;SDS011;45117;50.960;5.500;2023-06-22T14:58:10;32.17;;;24.00;;
59338;SDS011;45117;50.960;5.500;2023-06-22T15:00:59;30.90;;;23.98;;
59338;SDS011;45117;50.960;5.500;2023-06-22T15:03:31;30.65;;;22.65;;
59338;SDS011;45117;50.960;5.500;2023-06-22T15:06:07;29.73;;;22.00;;
59338;SDS011;45117;50.960;5.500;2023-06-22T15:08:34;31.25;;;23.50;;
59338;SDS011;45117;50.960;5.500;2023-06-22T15:11:02;30.58;;;21.58;;
59338;SDS011;45117;50.960;5.500;2023-06-22T15:13:32;29.23;;;22.33;;
59338;SDS011;45117;50.960;5.500;2023-06-22T15:16:02;27.73;;;20.92;;
59338;SDS011;45117;50.960;5.500;2023-06-22T15:18:47;27.27;;;20.63;;
59338;SDS011;45117;50.960;5.500;2023-06-22T15:21:18;28.58;;;20.63;;
59338;SDS011;45117;50.960;5.500;2023-06-22T15:23:54;25.13;;;19.00;;
59338;SDS011;45117;50.960;5.500;2023-06-22T15:26:21;26.30;;;19.67;;
59338;SDS011;45117;50.960;5.500;2023-06-22T15:28:50;30.88;;;21.33;;
59338;SDS011;45117;50.960;5.500;2023-06-22T15:31:50;26.73;;;19.63;;
59338;SDS011;45117;50.960;5.500;2023-06-22T15:34:24;35.67;;;23.48;;
59338;SDS011;45117;50.960;5.500;2023-06-22T15:36:54;33.00;;;22.13;;
59338;SDS011;45117;50.960;5.500;2023-06-22T15:39:23;32.28;;;22.10;;
59338;SDS011;45117;50.960;5.500;2023-06-22T15:41:57;22.75;;;17.23;;
59338;SDS011;45117;50.960;5.500;2023-06-22T15:44:27;26.25;;;18.95;;
59338;SDS011;45117;50.960;5.500;2023-06-22T15:47:02;27.02;;;19.90;;
59338;SDS011;45117;50.960;5.500;2023-06-22T15:49:47;30.20;;;20.15;;
59338;SDS011;45117;50.960;5.500;2023-06-22T15:52:34;31.35;;;21.20;;
59338;SDS011;45117;50.960;5.500;2023-06-22T15:55:18;27.33;;;18.80;;
59338;SDS011;45117;50.960;5.500;2023-06-22T15:58:23;27.77;;;19.95;;
59338;SDS011;45117;50.960;5.500;2023-06-22T16:00:56;27.92;;;19.33;;
59338;SDS011;45117;50.960;5.500;2023-06-22T16:03:27;31.75;;;20.67;;
59338;SDS011;45117;50.960;5.500;2023-06-22T16:05:56;28.80;;;20.17;;
59338;SDS011;45117;50.960;5.500;2023-06-22T16:08:23;28.17;;;20.45;;
59338;SDS011;45117;50.960;5.500;2023-06-22T16:10:50;29.38;;;20.60;;
59338;SDS011;45117;50.960;5.500;2023-06-22T16:13:17;25.88;;;19.50;;
59338;SDS011;45117;50.960;5.500;2023-06-22T16:15:47;27.33;;;20.08;;
59338;SDS011;45117;50.960;5.500;2023-06-22T16:18:14;29.10;;;21.80;;
59338;SDS011;45117;50.960;5.500;2023-06-22T16:20:41;25.52;;;18.63;;
59338;SDS011;45117;50.960;5.500;2023-06-22T16:23:13;29.15;;;20.50;;
59338;SDS011;45117;50.960;5.500;2023-06-22T16:25:39;26.85;;;18.80;;
59338;SDS011;45117;50.960;5.500;2023-06-22T16:28:06;22.02;;;16.52;;
59338;SDS011;45117;50.960;5.500;2023-06-22T16:30:33;27.02;;;19.70;;
59338;SDS011;45117;50.960;5.500;2023-06-22T16:32:59;30.65;;;20.25;;
59338;SDS011;45117;50.960;5.500;2023-06-22T16:35:28;30.38;;;20.15;;
59338;SDS011;45117;50.960;5.500;2023-06-22T16:37:57;25.92;;;18.45;;
59338;SDS011;45117;50.960;5.500;2023-06-22T16:40:30;21.63;;;17.00;;
59338;SDS011;45117;50.960;5.500;2023-06-22T16:42:58;27.35;;;20.27;;
59338;SDS011;45117;50.960;5.500;2023-06-22T16:45:27;31.90;;;22.20;;
59338;SDS011;45117;50.960;5.500;2023-06-22T16:47:57;29.67;;;18.77;;
59338;SDS011;45117;50.960;5.500;2023-06-22T16:50:35;30.58;;;22.17;;
59338;SDS011;45117;50.960;5.500;2023-06-22T16:53:12;32.72;;;22.67;;
59338;SDS011;45117;50.960;5.500;2023-06-22T16:55:43;26.58;;;18.00;;
59338;SDS011;45117;50.960;5.500;2023-06-22T16:58:25;26.15;;;18.75;;
59338;SDS011;45117;50.960;5.500;2023-06-22T17:01:01;31.23;;;20.27;;
59338;SDS011;45117;50.960;5.500;2023-06-22T17:03:29;30.52;;;20.80;;
59338;SDS011;45117;50.960;5.500;2023-06-22T17:05:58;28.92;;;19.88;;
59338;SDS011;45117;50.960;5.500;2023-06-22T17:08:26;28.60;;;19.75;;
59338;SDS011;45117;50.960;5.500;2023-06-22T17:10:58;25.95;;;17.88;;
59338;SDS011;45117;50.960;5.500;2023-06-22T17:13:25;25.73;;;19.00;;
59338;SDS011;45117;50.960;5.500;2023-06-22T17:15:57;28.75;;;20.95;;
59338;SDS011;45117;50.960;5.500;2023-06-22T17:18:27;28.60;;;20.85;;
59338;SDS011;45117;50.960;5.500;2023-06-22T17:20:55;25.20;;;17.92;;
59338;SDS011;45117;50.960;5.500;2023-06-22T17:23:23;29.00;;;18.75;;
59338;SDS011;45117;50.960;5.500;2023-06-22T17:25:50;31.33;;;20.95;;
59338;SDS011;45117;50.960;5.500;2023-06-22T17:31:26;29.77;;;20.42;;
59338;SDS011;45117;50.960;5.500;2023-06-22T17:34:17;27.67;;;19.92;;
59338;SDS011;45117;50.960;5.500;2023-06-22T17:37:01;27.55;;;19.70;;
59338;SDS011;45117;50.960;5.500;2023-06-22T17:39:28;28.08;;;19.15;;
59338;SDS011;45117;50.960;5.500;2023-06-22T17:41:55;26.70;;;19.15;;
59338;SDS011;45117;50.960;5.500;2023-06-22T17:44:38;28.83;;;20.05;;
59338;SDS011;45117;50.960;5.500;2023-06-22T17:47:22;27.25;;;20.40;;
59338;SDS011;45117;50.960;5.500;2023-06-22T17:49:51;25.55;;;18.60;;
59338;SDS011;45117;50.960;5.500;2023-06-22T17:52:26;30.90;;;22.23;;
59338;SDS011;45117;50.960;5.500;2023-06-22T17:55:05;31.95;;;22.95;;